sensor_id;sensor_type;location;lat;lon;timestamp;temperature;humidity
17879;DHT22;9065;51.050;13.758;2022-07-29T00:00:42;18.30;99.90
17879;DHT22;9065;51.050;13.758;2022-07-29T00:03:10;18.20;99.90
17879;DHT22;9065;51.050;13.758;2022-07-29T00:05:38;18.30;99.90
17879;DHT22;9065;51.050;13.758;2022-07-29T00:08:06;18.20;99.90
17879;DHT22;9065;51.050;13.758;2022-07-29T00:10:35;18.20;99.90
17879;DHT22;9065;51.050;13.758;2022-07-29T00:13:09;18.20;99.90
17879;DHT22;9065;51.050;13.758;2022-07-29T00:15:37;18.00;99.90
17879;DHT22;9065;51.050;13.758;2022-07-29T00:18:04;17.90;99.90
17879;DHT22;9065;51.050;13.758;2022-07-29T00:20:31;17.90;99.90
17879;DHT22;9065;51.050;13.758;2022-07-29T00:22:59;17.90;99.90
17879;DHT22;9065;51.050;13.758;2022-07-29T00:25:27;17.90;99.90
17879;DHT22;9065;51.050;13.758;2022-07-29T00:27:55;17.80;99.90
17879;DHT22;9065;51.050;13.758;2022-07-29T00:30:24;17.80;99.90
17879;DHT22;9065;51.050;13.758;2022-07-29T00:32:51;17.70;99.90
17879;DHT22;9065;51.050;13.758;2022-07-29T00:35:18;17.70;99.90
17879;DHT22;9065;51.050;13.758;2022-07-29T00:38:02;17.70;99.90
17879;DHT22;9065;51.050;13.758;2022-07-29T00:40:29;17.60;99.90
17879;DHT22;9065;51.050;13.758;2022-07-29T00:42:58;17.60;99.90
17879;DHT22;9065;51.050;13.758;2022-07-29T00:45:26;17.50;99.90
17879;DHT22;9065;51.050;13.758;2022-07-29T00:47:55;17.40;99.90
17879;DHT22;9065;51.050;13.758;2022-07-29T00:50:23;17.50;99.90
17879;DHT22;9065;51.050;13.758;2022-07-29T00:52:52;17.50;99.90
17879;DHT22;9065;51.050;13.758;2022-07-29T00:55:19;17.50;99.90
17879;DHT22;9065;51.050;13.758;2022-07-29T00:57:46;17.30;99.90
17879;DHT22;9065;51.050;13.758;2022-07-29T01:00:17;17.30;99.90
17879;DHT22;9065;51.050;13.758;2022-07-29T01:02:48;17.40;99.90
17879;DHT22;9065;51.050;13.758;2022-07-29T01:05:18;17.30;99.90
17879;DHT22;9065;51.050;13.758;2022-07-29T01:07:49;17.30;99.90
17879;DHT22;9065;51.050;13.758;2022-07-29T01:10:18;17.10;99.90
17879;DHT22;9065;51.050;13.758;2022-07-29T01:12:48;17.10;99.90
17879;DHT22;9065;51.050;13.758;2022-07-29T01:15:17;17.10;99.90
17879;DHT22;9065;51.050;13.758;2022-07-29T01:17:48;17.10;99.90
17879;DHT22;9065;51.050;13.758;2022-07-29T01:20:23;17.10;99.90
17879;DHT22;9065;51.050;13.758;2022-07-29T01:23:25;17.10;99.90
17879;DHT22;9065;51.050;13.758;2022-07-29T01:26:08;17.00;99.90
17879;DHT22;9065;51.050;13.758;2022-07-29T01:29:15;17.00;99.90
17879;DHT22;9065;51.050;13.758;2022-07-29T01:31:47;17.00;99.90
17879;DHT22;9065;51.050;13.758;2022-07-29T01:34:20;16.90;99.90
17879;DHT22;9065;51.050;13.758;2022-07-29T01:36:55;16.90;99.90
17879;DHT22;9065;51.050;13.758;2022-07-29T01:39:36;16.90;99.90
17879;DHT22;9065;51.050;13.758;2022-07-29T01:42:26;16.80;99.90
17879;DHT22;9065;51.050;13.758;2022-07-29T01:45:18;16.80;99.90
17879;DHT22;9065;51.050;13.758;2022-07-29T01:47:49;16.60;99.90
17879;DHT22;9065;51.050;13.758;2022-07-29T01:50:30;16.50;99.90
17879;DHT22;9065;51.050;13.758;2022-07-29T01:53:00;16.50;99.90
17879;DHT22;9065;51.050;13.758;2022-07-29T01:55:30;16.50;99.90
17879;DHT22;9065;51.050;13.758;2022-07-29T01:57:59;16.50;99.90
17879;DHT22;9065;51.050;13.758;2022-07-29T02:00:30;16.50;99.90
17879;DHT22;9065;51.050;13.758;2022-07-29T02:03:00;16.50;99.90
17879;DHT22;9065;51.050;13.758;2022-07-29T02:05:30;16.40;99.90
17879;DHT22;9065;51.050;13.758;2022-07-29T02:08:00;16.30;99.90
17879;DHT22;9065;51.050;13.758;2022-07-29T02:10:34;16.30;99.90
17879;DHT22;9065;51.050;13.758;2022-07-29T02:13:03;16.40;99.90
17879;DHT22;9065;51.050;13.758;2022-07-29T02:15:33;16.40;99.90
17879;DHT22;9065;51.050;13.758;2022-07-29T02:18:04;16.40;99.90
17879;DHT22;9065;51.050;13.758;2022-07-29T02:20:43;16.40;99.90
17879;DHT22;9065;51.050;13.758;2022-07-29T02:23:12;16.50;99.90
17879;DHT22;9065;51.050;13.758;2022-07-29T02:25:43;16.50;99.90
17879;DHT22;9065;51.050;13.758;2022-07-29T02:28:10;16.50;99.90
17879;DHT22;9065;51.050;13.758;2022-07-29T02:30:45;16.50;99.90
17879;DHT22;9065;51.050;13.758;2022-07-29T02:33:14;16.50;99.90
17879;DHT22;9065;51.050;13.758;2022-07-29T02:35:43;16.60;99.90
17879;DHT22;9065;51.050;13.758;2022-07-29T02:38:15;16.50;99.90
17879;DHT22;9065;51.050;13.758;2022-07-29T02:41:04;16.50;99.90
17879;DHT22;9065;51.050;13.758;2022-07-29T02:43:34;16.50;99.90
17879;DHT22;9065;51.050;13.758;2022-07-29T02:46:05;16.40;99.90
17879;DHT22;9065;51.050;13.758;2022-07-29T02:48:38;16.30;99.90
17879;DHT22;9065;51.050;13.758;2022-07-29T02:51:15;16.20;99.90
17879;DHT22;9065;51.050;13.758;2022-07-29T02:53:49;16.30;99.90
17879;DHT22;9065;51.050;13.758;2022-07-29T02:56:22;16.30;99.90
17879;DHT22;9065;51.050;13.758;2022-07-29T02:58:55;16.30;99.90
17879;DHT22;9065;51.050;13.758;2022-07-29T03:01:25;16.40;99.90
17879;DHT22;9065;51.050;13.758;2022-07-29T03:03:56;16.40;99.90
17879;DHT22;9065;51.050;13.758;2022-07-29T03:06:26;16.30;99.90
17879;DHT22;9065;51.050;13.758;2022-07-29T03:08:57;16.40;99.90
17879;DHT22;9065;51.050;13.758;2022-07-29T03:11:25;16.30;99.90
17879;DHT22;9065;51.050;13.758;2022-07-29T03:13:59;16.30;99.90
17879;DHT22;9065;51.050;13.758;2022-07-29T03:16:29;16.30;99.90
17879;DHT22;9065;51.050;13.758;2022-07-29T03:18:58;16.10;99.90
17879;DHT22;9065;51.050;13.758;2022-07-29T03:21:25;16.20;99.90
17879;DHT22;9065;51.050;13.758;2022-07-29T03:23:52;16.00;99.90
17879;DHT22;9065;51.050;13.758;2022-07-29T03:26:19;16.10;99.90
17879;DHT22;9065;51.050;13.758;2022-07-29T03:28:48;16.10;99.90
17879;DHT22;9065;51.050;13.758;2022-07-29T03:31:16;16.10;99.90
17879;DHT22;9065;51.050;13.758;2022-07-29T03:33:50;16.10;99.90
17879;DHT22;9065;51.050;13.758;2022-07-29T03:36:19;16.20;99.90
17879;DHT22;9065;51.050;13.758;2022-07-29T03:38:47;16.10;99.90
17879;DHT22;9065;51.050;13.758;2022-07-29T03:41:16;16.20;99.90
17879;DHT22;9065;51.050;13.758;2022-07-29T03:43:46;16.30;99.90
17879;DHT22;9065;51.050;13.758;2022-07-29T03:46:16;16.20;99.90
17879;DHT22;9065;51.050;13.758;2022-07-29T03:48:46;16.20;99.90
17879;DHT22;9065;51.050;13.758;2022-07-29T03:51:16;16.20;99.90
17879;DHT22;9065;51.050;13.758;2022-07-29T03:53:44;16.20;99.90
17879;DHT22;9065;51.050;13.758;2022-07-29T03:56:15;16.20;99.90
17879;DHT22;9065;51.050;13.758;2022-07-29T03:58:45;16.10;99.90
17879;DHT22;9065;51.050;13.758;2022-07-29T04:01:15;16.20;99.90
17879;DHT22;9065;51.050;13.758;2022-07-29T04:03:43;16.20;99.90
17879;DHT22;9065;51.050;13.758;2022-07-29T04:06:12;16.20;99.90
17879;DHT22;9065;51.050;13.758;2022-07-29T04:08:42;16.30;99.90
17879;DHT22;9065;51.050;13.758;2022-07-29T04:11:10;16.30;99.90
17879;DHT22;9065;51.050;13.758;2022-07-29T04:13:39;16.30;99.90
17879;DHT22;9065;51.050;13.758;2022-07-29T04:16:06;16.40;99.90
17879;DHT22;9065;51.050;13.758;2022-07-29T04:18:33;16.40;99.90
17879;DHT22;9065;51.050;13.758;2022-07-29T04:21:03;16.50;99.90
17879;DHT22;9065;51.050;13.758;2022-07-29T04:23:31;16.50;99.90
17879;DHT22;9065;51.050;13.758;2022-07-29T04:26:01;16.60;99.90
17879;DHT22;9065;51.050;13.758;2022-07-29T04:28:38;16.60;99.90
17879;DHT22;9065;51.050;13.758;2022-07-29T04:31:08;16.70;99.90
17879;DHT22;9065;51.050;13.758;2022-07-29T04:33:36;16.70;99.90
17879;DHT22;9065;51.050;13.758;2022-07-29T04:36:03;16.70;99.90
17879;DHT22;9065;51.050;13.758;2022-07-29T04:38:30;16.70;99.90
17879;DHT22;9065;51.050;13.758;2022-07-29T04:40:57;16.70;99.90
17879;DHT22;9065;51.050;13.758;2022-07-29T04:43:25;16.70;99.90
17879;DHT22;9065;51.050;13.758;2022-07-29T04:45:52;16.60;99.90
17879;DHT22;9065;51.050;13.758;2022-07-29T04:48:21;16.50;99.90
17879;DHT22;9065;51.050;13.758;2022-07-29T04:50:48;16.50;99.90
17879;DHT22;9065;51.050;13.758;2022-07-29T04:53:15;16.60;99.90
17879;DHT22;9065;51.050;13.758;2022-07-29T04:55:42;16.70;99.90
17879;DHT22;9065;51.050;13.758;2022-07-29T04:58:09;16.90;99.90
17879;DHT22;9065;51.050;13.758;2022-07-29T05:00:39;17.00;99.90
17879;DHT22;9065;51.050;13.758;2022-07-29T05:03:11;17.00;99.90
17879;DHT22;9065;51.050;13.758;2022-07-29T05:05:39;17.00;99.90
17879;DHT22;9065;51.050;13.758;2022-07-29T05:08:06;16.90;99.90
17879;DHT22;9065;51.050;13.758;2022-07-29T05:10:34;17.00;99.90
17879;DHT22;9065;51.050;13.758;2022-07-29T05:13:04;17.00;99.90
17879;DHT22;9065;51.050;13.758;2022-07-29T05:15:34;17.10;99.90
17879;DHT22;9065;51.050;13.758;2022-07-29T05:18:04;17.20;99.90
17879;DHT22;9065;51.050;13.758;2022-07-29T05:20:33;17.20;99.90
17879;DHT22;9065;51.050;13.758;2022-07-29T05:23:00;17.30;99.90
17879;DHT22;9065;51.050;13.758;2022-07-29T05:25:29;17.30;99.90
17879;DHT22;9065;51.050;13.758;2022-07-29T05:27:57;17.30;99.90
17879;DHT22;9065;51.050;13.758;2022-07-29T05:30:24;17.30;99.90
17879;DHT22;9065;51.050;13.758;2022-07-29T05:32:51;17.40;99.90
17879;DHT22;9065;51.050;13.758;2022-07-29T05:35:21;17.50;99.90
17879;DHT22;9065;51.050;13.758;2022-07-29T05:37:52;17.70;99.90
17879;DHT22;9065;51.050;13.758;2022-07-29T05:40:20;17.80;99.90
17879;DHT22;9065;51.050;13.758;2022-07-29T05:42:47;18.00;99.90
17879;DHT22;9065;51.050;13.758;2022-07-29T05:45:15;18.10;99.90
17879;DHT22;9065;51.050;13.758;2022-07-29T05:47:43;18.30;99.90
17879;DHT22;9065;51.050;13.758;2022-07-29T05:50:12;18.30;99.90
17879;DHT22;9065;51.050;13.758;2022-07-29T05:52:40;18.40;99.90
17879;DHT22;9065;51.050;13.758;2022-07-29T05:55:07;18.50;99.90
17879;DHT22;9065;51.050;13.758;2022-07-29T05:57:41;18.70;99.90
17879;DHT22;9065;51.050;13.758;2022-07-29T06:00:10;18.80;99.90
17879;DHT22;9065;51.050;13.758;2022-07-29T06:02:38;18.80;99.90
17879;DHT22;9065;51.050;13.758;2022-07-29T06:05:06;18.80;99.90
17879;DHT22;9065;51.050;13.758;2022-07-29T06:07:35;18.90;99.90
17879;DHT22;9065;51.050;13.758;2022-07-29T06:10:05;19.00;99.90
17879;DHT22;9065;51.050;13.758;2022-07-29T06:12:33;19.00;99.90
17879;DHT22;9065;51.050;13.758;2022-07-29T06:15:00;19.00;99.90
17879;DHT22;9065;51.050;13.758;2022-07-29T06:17:33;19.10;99.90
17879;DHT22;9065;51.050;13.758;2022-07-29T06:20:00;19.20;99.90
17879;DHT22;9065;51.050;13.758;2022-07-29T06:22:27;19.40;99.90
17879;DHT22;9065;51.050;13.758;2022-07-29T06:24:57;19.50;99.90
17879;DHT22;9065;51.050;13.758;2022-07-29T06:27:25;19.60;99.90
17879;DHT22;9065;51.050;13.758;2022-07-29T06:29:53;19.70;99.90
17879;DHT22;9065;51.050;13.758;2022-07-29T06:32:20;19.80;99.90
17879;DHT22;9065;51.050;13.758;2022-07-29T06:34:49;19.80;99.90
17879;DHT22;9065;51.050;13.758;2022-07-29T06:37:16;19.80;99.90
17879;DHT22;9065;51.050;13.758;2022-07-29T06:39:49;19.80;99.90
17879;DHT22;9065;51.050;13.758;2022-07-29T06:42:41;19.90;99.90
17879;DHT22;9065;51.050;13.758;2022-07-29T06:45:09;19.90;99.90
17879;DHT22;9065;51.050;13.758;2022-07-29T06:47:37;20.10;99.90
17879;DHT22;9065;51.050;13.758;2022-07-29T06:50:07;20.20;99.90
17879;DHT22;9065;51.050;13.758;2022-07-29T06:52:39;20.40;99.90
17879;DHT22;9065;51.050;13.758;2022-07-29T06:55:07;20.50;99.90
17879;DHT22;9065;51.050;13.758;2022-07-29T06:57:34;20.70;99.90
17879;DHT22;9065;51.050;13.758;2022-07-29T07:00:03;20.80;99.90
17879;DHT22;9065;51.050;13.758;2022-07-29T07:02:35;20.90;99.90
17879;DHT22;9065;51.050;13.758;2022-07-29T07:05:03;20.90;99.90
17879;DHT22;9065;51.050;13.758;2022-07-29T07:07:31;20.90;99.90
17879;DHT22;9065;51.050;13.758;2022-07-29T07:09:59;21.00;99.90
17879;DHT22;9065;51.050;13.758;2022-07-29T07:12:26;21.30;99.90
17879;DHT22;9065;51.050;13.758;2022-07-29T07:14:53;21.40;99.90
17879;DHT22;9065;51.050;13.758;2022-07-29T07:17:24;21.60;99.90
17879;DHT22;9065;51.050;13.758;2022-07-29T07:19:56;21.80;99.90
17879;DHT22;9065;51.050;13.758;2022-07-29T07:22:23;21.70;99.90
17879;DHT22;9065;51.050;13.758;2022-07-29T07:24:50;21.70;99.90
17879;DHT22;9065;51.050;13.758;2022-07-29T07:27:18;21.70;99.90
17879;DHT22;9065;51.050;13.758;2022-07-29T07:29:48;21.80;99.90
17879;DHT22;9065;51.050;13.758;2022-07-29T07:32:15;22.00;99.90
17879;DHT22;9065;51.050;13.758;2022-07-29T07:34:49;22.00;99.90
17879;DHT22;9065;51.050;13.758;2022-07-29T07:37:16;21.90;99.90
17879;DHT22;9065;51.050;13.758;2022-07-29T07:39:45;21.90;99.90
17879;DHT22;9065;51.050;13.758;2022-07-29T07:42:12;22.00;99.90
17879;DHT22;9065;51.050;13.758;2022-07-29T07:44:39;22.20;99.90
17879;DHT22;9065;51.050;13.758;2022-07-29T07:47:07;22.50;99.90
17879;DHT22;9065;51.050;13.758;2022-07-29T07:49:36;22.60;99.90
17879;DHT22;9065;51.050;13.758;2022-07-29T07:52:06;22.80;99.90
17879;DHT22;9065;51.050;13.758;2022-07-29T07:54:35;22.90;99.90
17879;DHT22;9065;51.050;13.758;2022-07-29T07:57:04;23.10;99.90
17879;DHT22;9065;51.050;13.758;2022-07-29T07:59:34;23.20;99.90
17879;DHT22;9065;51.050;13.758;2022-07-29T08:02:01;23.20;99.90
17879;DHT22;9065;51.050;13.758;2022-07-29T08:04:27;23.10;99.90
17879;DHT22;9065;51.050;13.758;2022-07-29T08:06:57;23.20;99.90
17879;DHT22;9065;51.050;13.758;2022-07-29T08:09:27;23.30;99.90
17879;DHT22;9065;51.050;13.758;2022-07-29T08:11:55;23.30;99.90
17879;DHT22;9065;51.050;13.758;2022-07-29T08:14:23;23.80;99.90
17879;DHT22;9065;51.050;13.758;2022-07-29T08:16:50;24.30;99.90
17879;DHT22;9065;51.050;13.758;2022-07-29T08:19:19;24.60;99.90
17879;DHT22;9065;51.050;13.758;2022-07-29T08:21:48;24.60;99.90
17879;DHT22;9065;51.050;13.758;2022-07-29T08:24:15;24.80;99.90
17879;DHT22;9065;51.050;13.758;2022-07-29T08:27:00;25.20;99.90
17879;DHT22;9065;51.050;13.758;2022-07-29T08:29:27;25.30;99.90
17879;DHT22;9065;51.050;13.758;2022-07-29T08:31:54;25.00;99.90
17879;DHT22;9065;51.050;13.758;2022-07-29T08:34:22;25.00;99.90
17879;DHT22;9065;51.050;13.758;2022-07-29T08:36:50;25.20;99.90
17879;DHT22;9065;51.050;13.758;2022-07-29T08:39:18;25.40;99.90
17879;DHT22;9065;51.050;13.758;2022-07-29T08:41:45;25.70;99.90
17879;DHT22;9065;51.050;13.758;2022-07-29T08:44:18;26.00;99.90
17879;DHT22;9065;51.050;13.758;2022-07-29T08:46:48;26.40;99.90
17879;DHT22;9065;51.050;13.758;2022-07-29T08:49:16;26.70;99.90
17879;DHT22;9065;51.050;13.758;2022-07-29T08:51:49;27.20;99.90
17879;DHT22;9065;51.050;13.758;2022-07-29T08:54:17;27.40;99.90
17879;DHT22;9065;51.050;13.758;2022-07-29T08:56:48;27.60;99.90
17879;DHT22;9065;51.050;13.758;2022-07-29T08:59:19;27.70;99.90
17879;DHT22;9065;51.050;13.758;2022-07-29T09:01:48;27.90;99.90
17879;DHT22;9065;51.050;13.758;2022-07-29T09:04:19;28.20;99.90
17879;DHT22;9065;51.050;13.758;2022-07-29T09:06:49;28.40;99.90
17879;DHT22;9065;51.050;13.758;2022-07-29T09:09:18;28.20;99.90
17879;DHT22;9065;51.050;13.758;2022-07-29T09:11:46;28.20;99.90
17879;DHT22;9065;51.050;13.758;2022-07-29T09:14:16;28.60;99.90
17879;DHT22;9065;51.050;13.758;2022-07-29T09:16:50;28.70;99.90
17879;DHT22;9065;51.050;13.758;2022-07-29T09:19:23;28.60;99.90
17879;DHT22;9065;51.050;13.758;2022-07-29T09:21:58;28.80;99.90
17879;DHT22;9065;51.050;13.758;2022-07-29T09:24:36;29.20;99.90
17879;DHT22;9065;51.050;13.758;2022-07-29T09:27:09;29.30;99.90
17879;DHT22;9065;51.050;13.758;2022-07-29T09:29:36;28.80;99.90
17879;DHT22;9065;51.050;13.758;2022-07-29T09:32:09;28.70;99.90
17879;DHT22;9065;51.050;13.758;2022-07-29T09:34:37;28.40;99.90
17879;DHT22;9065;51.050;13.758;2022-07-29T09:37:05;28.20;99.90
17879;DHT22;9065;51.050;13.758;2022-07-29T09:39:33;28.30;99.90
17879;DHT22;9065;51.050;13.758;2022-07-29T09:42:03;28.40;99.90
17879;DHT22;9065;51.050;13.758;2022-07-29T09:44:44;28.60;99.90
17879;DHT22;9065;51.050;13.758;2022-07-29T09:47:12;28.40;99.90
17879;DHT22;9065;51.050;13.758;2022-07-29T09:49:54;28.30;99.90
17879;DHT22;9065;51.050;13.758;2022-07-29T09:52:30;28.40;99.90
17879;DHT22;9065;51.050;13.758;2022-07-29T09:55:06;28.30;99.90
17879;DHT22;9065;51.050;13.758;2022-07-29T09:57:34;28.40;99.90
17879;DHT22;9065;51.050;13.758;2022-07-29T10:00:05;28.50;99.90
17879;DHT22;9065;51.050;13.758;2022-07-29T10:02:36;28.40;99.90
17879;DHT22;9065;51.050;13.758;2022-07-29T10:05:06;28.40;99.90
17879;DHT22;9065;51.050;13.758;2022-07-29T10:07:44;28.60;99.90
17879;DHT22;9065;51.050;13.758;2022-07-29T10:10:19;28.70;99.90
17879;DHT22;9065;51.050;13.758;2022-07-29T10:12:51;28.70;99.90
17879;DHT22;9065;51.050;13.758;2022-07-29T10:15:21;29.20;99.90
17879;DHT22;9065;51.050;13.758;2022-07-29T10:17:57;30.00;99.90
17879;DHT22;9065;51.050;13.758;2022-07-29T10:20:27;30.60;99.90
17879;DHT22;9065;51.050;13.758;2022-07-29T10:22:57;31.60;99.90
17879;DHT22;9065;51.050;13.758;2022-07-29T10:25:24;33.00;99.90
17879;DHT22;9065;51.050;13.758;2022-07-29T10:27:53;34.10;99.70
17879;DHT22;9065;51.050;13.758;2022-07-29T10:30:21;34.20;97.40
17879;DHT22;9065;51.050;13.758;2022-07-29T10:33:05;33.70;96.70
17879;DHT22;9065;51.050;13.758;2022-07-29T10:35:44;32.70;96.40
17879;DHT22;9065;51.050;13.758;2022-07-29T10:41:43;31.00;98.10
17879;DHT22;9065;51.050;13.758;2022-07-29T10:44:18;30.00;98.60
17879;DHT22;9065;51.050;13.758;2022-07-29T10:46:52;29.30;99.00
17879;DHT22;9065;51.050;13.758;2022-07-29T10:49:23;29.50;99.30
17879;DHT22;9065;51.050;13.758;2022-07-29T10:51:58;30.30;98.90
17879;DHT22;9065;51.050;13.758;2022-07-29T10:54:45;30.20;98.40
17879;DHT22;9065;51.050;13.758;2022-07-29T10:57:18;30.40;98.50
17879;DHT22;9065;51.050;13.758;2022-07-29T11:00:26;31.10;98.20
17879;DHT22;9065;51.050;13.758;2022-07-29T11:02:53;32.00;97.20
17879;DHT22;9065;51.050;13.758;2022-07-29T11:05:24;32.30;96.60
17879;DHT22;9065;51.050;13.758;2022-07-29T11:08:18;32.60;96.10
17879;DHT22;9065;51.050;13.758;2022-07-29T11:10:47;32.10;95.50
17879;DHT22;9065;51.050;13.758;2022-07-29T11:13:45;31.70;95.70
17879;DHT22;9065;51.050;13.758;2022-07-29T11:16:13;31.50;95.50
17879;DHT22;9065;51.050;13.758;2022-07-29T11:21:45;32.10;95.90
17879;DHT22;9065;51.050;13.758;2022-07-29T11:24:21;32.50;94.90
17879;DHT22;9065;51.050;13.758;2022-07-29T11:27:12;32.20;95.70
17879;DHT22;9065;51.050;13.758;2022-07-29T11:29:49;32.30;95.00
17879;DHT22;9065;51.050;13.758;2022-07-29T11:32:18;32.40;94.90
17879;DHT22;9065;51.050;13.758;2022-07-29T11:34:48;31.90;95.20
17879;DHT22;9065;51.050;13.758;2022-07-29T11:37:23;31.80;95.30
17879;DHT22;9065;51.050;13.758;2022-07-29T11:40:24;31.80;95.50
17879;DHT22;9065;51.050;13.758;2022-07-29T11:42:52;31.60;95.60
17879;DHT22;9065;51.050;13.758;2022-07-29T11:45:23;31.80;95.50
17879;DHT22;9065;51.050;13.758;2022-07-29T11:47:55;31.70;95.20
17879;DHT22;9065;51.050;13.758;2022-07-29T11:50:32;31.50;95.50
17879;DHT22;9065;51.050;13.758;2022-07-29T11:53:02;31.20;95.60
17879;DHT22;9065;51.050;13.758;2022-07-29T11:55:29;31.00;95.90
17879;DHT22;9065;51.050;13.758;2022-07-29T11:58:02;31.00;95.40
17879;DHT22;9065;51.050;13.758;2022-07-29T12:00:34;30.90;95.60
17879;DHT22;9065;51.050;13.758;2022-07-29T12:03:06;30.70;95.70
17879;DHT22;9065;51.050;13.758;2022-07-29T12:05:40;30.20;96.10
17879;DHT22;9065;51.050;13.758;2022-07-29T12:08:11;30.00;96.40
17879;DHT22;9065;51.050;13.758;2022-07-29T12:10:40;30.10;96.60
17879;DHT22;9065;51.050;13.758;2022-07-29T12:13:08;30.30;96.40
17879;DHT22;9065;51.050;13.758;2022-07-29T12:15:37;30.50;96.40
17879;DHT22;9065;51.050;13.758;2022-07-29T12:18:17;30.80;96.50
17879;DHT22;9065;51.050;13.758;2022-07-29T12:20:47;31.00;96.40
17879;DHT22;9065;51.050;13.758;2022-07-29T12:23:16;31.30;96.00
17879;DHT22;9065;51.050;13.758;2022-07-29T12:25:46;31.50;95.90
17879;DHT22;9065;51.050;13.758;2022-07-29T12:28:14;31.40;95.30
17879;DHT22;9065;51.050;13.758;2022-07-29T12:30:46;31.20;95.70
17879;DHT22;9065;51.050;13.758;2022-07-29T12:33:28;30.70;95.70
17879;DHT22;9065;51.050;13.758;2022-07-29T12:36:01;30.40;95.90
17879;DHT22;9065;51.050;13.758;2022-07-29T12:38:30;30.00;96.30
17879;DHT22;9065;51.050;13.758;2022-07-29T12:40:57;29.60;96.50
17879;DHT22;9065;51.050;13.758;2022-07-29T12:43:30;29.20;96.80
17879;DHT22;9065;51.050;13.758;2022-07-29T12:46:11;29.30;97.40
17879;DHT22;9065;51.050;13.758;2022-07-29T12:48:40;29.30;97.20
17879;DHT22;9065;51.050;13.758;2022-07-29T12:51:10;29.30;97.40
17879;DHT22;9065;51.050;13.758;2022-07-29T12:54:02;29.10;97.40
17879;DHT22;9065;51.050;13.758;2022-07-29T12:56:33;28.90;97.70
17879;DHT22;9065;51.050;13.758;2022-07-29T12:59:11;28.90;97.80
17879;DHT22;9065;51.050;13.758;2022-07-29T13:01:45;28.90;97.70
17879;DHT22;9065;51.050;13.758;2022-07-29T13:04:25;29.10;97.90
17879;DHT22;9065;51.050;13.758;2022-07-29T13:07:04;29.20;97.80
17879;DHT22;9065;51.050;13.758;2022-07-29T13:09:41;29.00;97.40
17879;DHT22;9065;51.050;13.758;2022-07-29T13:12:09;28.80;97.90
17879;DHT22;9065;51.050;13.758;2022-07-29T13:14:39;29.00;97.80
17879;DHT22;9065;51.050;13.758;2022-07-29T13:17:09;29.00;97.60
17879;DHT22;9065;51.050;13.758;2022-07-29T13:19:38;29.00;97.60
17879;DHT22;9065;51.050;13.758;2022-07-29T13:22:06;29.10;97.60
17879;DHT22;9065;51.050;13.758;2022-07-29T13:24:34;29.20;97.70
17879;DHT22;9065;51.050;13.758;2022-07-29T13:27:02;29.30;98.20
17879;DHT22;9065;51.050;13.758;2022-07-29T13:29:30;29.20;97.30
17879;DHT22;9065;51.050;13.758;2022-07-29T13:31:57;29.20;97.80
17879;DHT22;9065;51.050;13.758;2022-07-29T13:34:25;29.20;98.20
17879;DHT22;9065;51.050;13.758;2022-07-29T13:36:53;29.20;97.80
17879;DHT22;9065;51.050;13.758;2022-07-29T13:39:20;29.30;97.70
17879;DHT22;9065;51.050;13.758;2022-07-29T13:41:47;29.40;97.50
17879;DHT22;9065;51.050;13.758;2022-07-29T13:44:17;29.40;97.50
17879;DHT22;9065;51.050;13.758;2022-07-29T13:46:45;29.30;97.80
17879;DHT22;9065;51.050;13.758;2022-07-29T13:49:12;29.30;98.00
17879;DHT22;9065;51.050;13.758;2022-07-29T13:51:40;29.10;97.90
17879;DHT22;9065;51.050;13.758;2022-07-29T13:54:16;29.10;98.20
17879;DHT22;9065;51.050;13.758;2022-07-29T13:56:45;29.10;98.20
17879;DHT22;9065;51.050;13.758;2022-07-29T13:59:19;29.10;98.00
17879;DHT22;9065;51.050;13.758;2022-07-29T14:01:47;29.10;98.40
17879;DHT22;9065;51.050;13.758;2022-07-29T14:04:14;29.00;98.40
17879;DHT22;9065;51.050;13.758;2022-07-29T14:06:41;29.00;98.30
17879;DHT22;9065;51.050;13.758;2022-07-29T14:09:08;29.00;98.30
17879;DHT22;9065;51.050;13.758;2022-07-29T14:11:35;29.10;98.40
17879;DHT22;9065;51.050;13.758;2022-07-29T14:14:04;29.30;98.20
17879;DHT22;9065;51.050;13.758;2022-07-29T14:16:33;29.40;97.90
17879;DHT22;9065;51.050;13.758;2022-07-29T14:19:01;29.30;97.80
17879;DHT22;9065;51.050;13.758;2022-07-29T14:21:29;29.30;97.90
17879;DHT22;9065;51.050;13.758;2022-07-29T14:23:57;29.30;98.10
17879;DHT22;9065;51.050;13.758;2022-07-29T14:26:25;29.30;97.90
17879;DHT22;9065;51.050;13.758;2022-07-29T14:28:52;29.10;98.10
17879;DHT22;9065;51.050;13.758;2022-07-29T14:31:25;29.00;98.10
17879;DHT22;9065;51.050;13.758;2022-07-29T14:33:59;28.90;98.20
17879;DHT22;9065;51.050;13.758;2022-07-29T14:36:25;28.80;98.10
17879;DHT22;9065;51.050;13.758;2022-07-29T14:38:58;28.80;98.20
17879;DHT22;9065;51.050;13.758;2022-07-29T14:41:25;28.70;98.40
17879;DHT22;9065;51.050;13.758;2022-07-29T14:43:54;28.80;98.40
17879;DHT22;9065;51.050;13.758;2022-07-29T14:46:22;28.80;98.50
17879;DHT22;9065;51.050;13.758;2022-07-29T14:48:49;28.90;98.10
17879;DHT22;9065;51.050;13.758;2022-07-29T14:51:18;28.90;98.30
17879;DHT22;9065;51.050;13.758;2022-07-29T14:53:45;28.90;98.20
17879;DHT22;9065;51.050;13.758;2022-07-29T14:56:15;29.00;98.10
17879;DHT22;9065;51.050;13.758;2022-07-29T14:58:42;29.10;98.00
17879;DHT22;9065;51.050;13.758;2022-07-29T15:01:11;29.20;98.20
17879;DHT22;9065;51.050;13.758;2022-07-29T15:03:38;29.30;98.00
17879;DHT22;9065;51.050;13.758;2022-07-29T15:06:07;29.20;97.80
17879;DHT22;9065;51.050;13.758;2022-07-29T15:08:36;29.10;97.80
17879;DHT22;9065;51.050;13.758;2022-07-29T15:11:04;29.00;97.80
17879;DHT22;9065;51.050;13.758;2022-07-29T15:13:30;28.90;97.90
17879;DHT22;9065;51.050;13.758;2022-07-29T15:15:58;28.90;97.50
17879;DHT22;9065;51.050;13.758;2022-07-29T15:18:26;28.80;97.80
17879;DHT22;9065;51.050;13.758;2022-07-29T15:20:53;28.80;97.90
17879;DHT22;9065;51.050;13.758;2022-07-29T15:23:21;28.60;97.90
17879;DHT22;9065;51.050;13.758;2022-07-29T15:25:49;28.60;98.10
17879;DHT22;9065;51.050;13.758;2022-07-29T15:28:17;28.60;98.30
17879;DHT22;9065;51.050;13.758;2022-07-29T15:30:44;28.60;98.20
17879;DHT22;9065;51.050;13.758;2022-07-29T15:33:12;28.70;98.40
17879;DHT22;9065;51.050;13.758;2022-07-29T15:35:42;28.60;98.20
17879;DHT22;9065;51.050;13.758;2022-07-29T15:38:10;28.60;98.50
17879;DHT22;9065;51.050;13.758;2022-07-29T15:40:38;28.60;98.20
17879;DHT22;9065;51.050;13.758;2022-07-29T15:43:09;28.60;98.10
17879;DHT22;9065;51.050;13.758;2022-07-29T15:45:43;28.60;98.20
17879;DHT22;9065;51.050;13.758;2022-07-29T15:48:32;28.60;98.40
17879;DHT22;9065;51.050;13.758;2022-07-29T15:51:01;28.60;98.50
17879;DHT22;9065;51.050;13.758;2022-07-29T15:53:28;28.70;98.90
17879;DHT22;9065;51.050;13.758;2022-07-29T15:55:55;28.60;99.10
17879;DHT22;9065;51.050;13.758;2022-07-29T15:58:23;28.60;99.20